Time;durP1;ratioP1;P1;durP2;ratioP2;P2;SDS_P1;SDS_P2;PMS_P1;PMS_P2;Temp;Humidity;BMP_temperature;BMP_pressure;BME280_temperature;BME280_humidity;BME280_pressure;Samples;Min_cycle;Max_cycle;Signal;HPM_P1;HPM_P2
2021/11/18 00:01:06;;;;;;;2.30;2.10;;;;;;;13.74;69.96;100466.84;4938570;29;20050;-76
2021/11/18 00:03:37;;;;;;;2.25;2.15;;;;;;;13.80;71.01;100473.75;4955755;29;20074;-75
2021/11/18 00:06:03;;;;;;;2.55;2.35;;;;;;;13.73;70.86;100474.41;4938200;29;20035;-75
2021/11/18 00:08:30;;;;;;;3.60;2.70;;;;;;;13.79;70.91;100472.91;4938043;29;20035;-75
2021/11/18 00:10:58;;;;;;;2.67;2.42;;;;;;;13.73;71.39;100460.44;4938102;29;20081;-77
2021/11/18 00:13:30;;;;;;;1.95;1.85;;;;;;;13.73;72.20;100473.63;4938586;29;20461;-75
2021/11/18 00:15:57;;;;;;;2.72;2.30;;;;;;;13.74;72.12;100466.84;4938166;29;20082;-76
2021/11/18 00:18:29;;;;;;;3.05;2.50;;;;;;;13.70;72.70;100479.97;4938403;29;20066;-75
2021/11/18 00:21:03;;;;;;;2.42;2.22;;;;;;;13.76;71.66;100472.88;4938233;29;20075;-75
2021/11/18 00:23:31;;;;;;;;;;;;;;;13.68;72.67;100471.16;4938579;29;20038;-75
2021/11/18 00:25:59;;;;;;;3.83;2.60;;;;;;;13.60;72.01;100459.88;4937913;29;19962;-75
2021/11/18 00:28:55;;;;;;;2.90;2.40;;;;;;;13.70;71.97;100460.41;4938100;29;20031;-77
2021/11/18 00:31:27;;;;;;;2.95;2.70;;;;;;;13.58;71.55;100459.44;4937849;29;20130;-76
2021/11/18 00:33:53;;;;;;;2.90;2.70;;;;;;;13.51;71.90;100462.13;4923262;29;20032;-76
2021/11/18 00:36:19;;;;;;;2.15;2.05;;;;;;;13.45;72.57;100458.03;4938062;29;20467;-76
2021/11/18 00:38:48;;;;;;;3.17;2.88;;;;;;;13.46;73.24;100459.63;4938006;29;20019;-76
2021/11/18 00:41:15;;;;;;;3.03;2.60;;;;;;;13.43;72.44;100463.19;4957613;28;20082;-79
2021/11/18 00:43:42;;;;;;;2.45;2.17;;;;;;;13.43;72.84;100466.00;4942251;29;20414;-76
2021/11/18 00:46:17;;;;;;;4.10;2.25;;;;;;;13.44;71.61;100473.19;4942166;29;20352;-76
2021/11/18 00:48:47;;;;;;;2.83;2.53;;;;;;;13.46;72.33;100467.22;4942142;29;20028;-76
2021/11/18 00:51:18;;;;;;;3.20;2.90;;;;;;;13.49;72.18;100474.88;4942587;29;20038;-76
2021/11/18 00:53:47;;;;;;;5.05;2.63;;;;;;;13.48;71.37;100471.28;4943070;29;20031;-76
2021/11/18 00:56:14;;;;;;;3.13;2.83;;;;;;;13.56;70.65;100464.59;4942700;29;20035;-76
2021/11/18 00:58:40;;;;;;;4.28;2.53;;;;;;;13.58;70.62;100467.84;4943184;29;20023;-76
2021/11/18 01:01:09;;;;;;;3.00;2.70;;;;;;;13.47;71.10;100464.03;4943012;29;20042;-76
2021/11/18 01:03:36;;;;;;;3.40;2.70;;;;;;;13.47;72.49;100461.25;4943508;29;20234;-76
2021/11/18 01:06:01;;;;;;;3.28;2.97;;;;;;;13.25;73.45;100439.75;4942238;29;20027;-76
2021/11/18 01:08:33;;;;;;;3.53;2.55;;;;;;;13.35;73.71;100453.88;4941908;29;20082;-76
2021/11/18 01:11:20;;;;;;;4.40;3.38;;;;;;;13.38;71.96;100457.94;4941617;29;20474;-76
2021/11/18 01:13:53;;;;;;;5.50;4.03;;;;;;;13.41;72.79;100465.53;4942299;29;20034;-76
2021/11/18 01:16:22;;;;;;;4.85;3.30;;;;;;;13.40;73.43;100461.16;4958503;29;20119;-77
2021/11/18 01:18:51;;;;;;;3.40;2.70;;;;;;;13.27;73.58;100451.38;4941636;29;20086;-76
2021/11/18 01:21:18;;;;;;;3.85;2.83;;;;;;;13.34;73.52;100473.81;4941480;29;20138;-76
2021/11/18 01:23:45;;;;;;;3.92;2.38;;;;;;;13.34;72.63;100485.00;4958635;29;20031;-76
2021/11/18 01:26:13;;;;;;;2.92;2.58;;;;;;;13.33;73.44;100486.19;4941206;29;20059;-76
2021/11/18 01:28:39;;;;;;;3.72;2.80;;;;;;;13.31;74.15;100491.34;4941493;29;20375;-76
2021/11/18 01:31:06;;;;;;;3.45;2.63;;;;;;;13.32;74.74;100492.97;4939624;29;20054;-76
2021/11/18 01:33:33;;;;;;;3.17;2.83;;;;;;;13.28;74.06;100497.69;4940764;29;20363;-76
2021/11/18 01:35:58;;;;;;;4.32;2.67;;;;;;;13.29;73.55;100497.31;4940669;29;20035;-76
2021/11/18 01:38:27;;;;;;;3.65;2.67;;;;;;;13.29;74.10;100504.88;4940700;29;20042;-76
2021/11/18 01:40:56;;;;;;;3.15;2.85;;;;;;;13.27;72.49;100501.66;4940825;29;20023;-76
2021/11/18 01:43:25;;;;;;;3.42;3.13;;;;;;;13.33;72.39;100505.75;4940490;29;20042;-76
2021/11/18 01:45:52;;;;;;;2.70;2.47;;;;;;;13.29;72.08;100502.09;4940329;29;20174;-77
2021/11/18 01:48:23;;;;;;;3.03;2.80;;;;;;;13.26;72.11;100494.44;4940206;29;20043;-76
2021/11/18 01:50:54;;;;;;;3.03;2.75;;;;;;;13.28;71.88;100497.69;4940156;28;20059;-76
2021/11/18 01:53:23;;;;;;;2.50;2.30;;;;;;;13.33;72.23;100494.56;4940045;29;20463;-76
2021/11/18 01:55:49;;;;;;;3.20;2.90;;;;;;;13.38;72.49;100502.66;4940024;29;20031;-76
2021/11/18 01:58:18;;;;;;;5.07;2.80;;;;;;;13.41;72.71;100498.28;4939998;29;20126;-76
2021/11/18 02:00:48;;;;;;;5.63;2.45;;;;;;;13.42;72.22;100497.09;4940001;29;20031;-76
2021/11/18 02:03:14;;;;;;;2.72;2.53;;;;;;;13.38;72.19;100480.28;4932848;29;20038;-76
2021/11/18 02:05:55;;;;;;;3.53;3.22;;;;;;;13.40;72.48;100482.69;4940645;29;20027;-76
2021/11/18 02:08:23;;;;;;;3.58;2.40;;;;;;;13.49;71.50;100486.06;4940484;29;20467;-77
2021/11/18 02:10:53;;;;;;;5.18;2.33;;;;;;;13.52;70.91;100486.09;4940970;29;20067;-76
2021/11/18 02:13:23;;;;;;;3.30;2.80;;;;;;;13.48;71.67;100488.03;4941059;29;20471;-76
2021/11/18 02:16:00;;;;;;;3.00;2.60;;;;;;;13.44;73.54;100484.38;4940979;29;20038;-76
2021/11/18 02:18:32;;;;;;;3.78;2.78;;;;;;;13.42;73.72;100480.31;4940498;29;20046;-76
2021/11/18 02:21:04;;;;;;;2.60;2.33;;;;;;;13.39;74.31;100487.47;4940796;29;20035;-76
2021/11/18 02:23:36;;;;;;;2.42;2.22;;;;;;;13.39;73.68;100493.06;4939909;29;20069;-76
2021/11/18 02:26:02;;;;;;;2.05;1.95;;;;;;;13.39;73.07;100493.06;4939835;29;20500;-76
2021/11/18 02:28:33;;;;;;;3.15;2.25;;;;;;;13.36;73.45;100488.22;4939748;29;20031;-76
2021/11/18 02:31:12;;;;;;;2.63;2.42;;;;;;;13.37;73.14;100492.66;4957422;29;20114;-77
2021/11/18 02:33:40;;;;;;;2.40;2.10;;;;;;;13.32;73.40;100488.19;4957646;29;20027;-76
2021/11/18 02:36:08;;;;;;;2.55;2.20;;;;;;;13.34;73.78;100498.97;4939747;29;20031;-76
2021/11/18 02:38:34;;;;;;;2.35;2.15;;;;;;;13.34;74.22;100494.19;4939831;29;20031;-76
2021/11/18 02:40:59;;;;;;;2.50;2.30;;;;;;;13.36;74.56;100499.41;4940134;29;20057;-76
2021/11/18 02:43:26;;;;;;;2.67;2.45;;;;;;;13.15;74.86;100466.28;4939686;29;20114;-76
2021/11/18 02:45:55;;;;;;;2.38;2.00;;;;;;;13.25;74.13;100509.59;4940076;29;20085;-76
2021/11/18 02:48:24;;;;;;;3.25;2.22;;;;;;;13.22;74.97;100504.78;4939664;29;20035;-76
2021/11/18 02:50:58;;;;;;;3.70;3.40;;;;;;;13.21;75.53;100503.09;4939902;29;20391;-76
2021/11/18 02:53:25;;;;;;;3.30;3.00;;;;;;;13.16;75.39;100500.66;4939276;29;20035;-76
2021/11/18 02:55:52;;;;;;;2.83;2.63;;;;;;;13.18;74.68;100501.06;4939224;29;20067;-76
2021/11/18 02:58:21;;;;;;;3.80;2.75;;;;;;;13.16;75.27;100497.84;4939363;29;20035;-76
2021/11/18 03:00:51;;;;;;;3.25;2.92;;;;;;;13.15;75.56;100494.22;4939974;29;20049;-75
2021/11/18 03:03:17;;;;;;;3.65;2.67;;;;;;;13.18;75.35;100487.91;4939163;29;20106;-78
2021/11/18 03:05:45;;;;;;;2.70;2.50;;;;;;;13.15;75.34;100501.81;4938959;29;20038;-76
2021/11/18 03:08:11;;;;;;;2.50;2.30;;;;;;;13.14;75.56;100503.00;4939159;29;20057;-76
2021/11/18 03:10:37;;;;;;;2.75;2.47;;;;;;;13.15;75.70;100508.19;4939668;29;20546;-76
2021/11/18 03:13:05;;;;;;;4.65;2.38;;;;;;;13.16;75.24;100511.81;4939361;29;20478;-77
2021/11/18 03:15:34;;;;;;;2.38;2.17;;;;;;;13.25;74.79;100518.78;4940019;29;20035;-76
2021/11/18 03:17:59;;;;;;;2.90;2.45;;;;;;;13.05;74.83;100506.84;4939929;29;20031;-76
2021/11/18 03:20:30;;;;;;;3.42;2.83;;;;;;;13.07;75.66;100504.47;4940269;29;20102;-76
2021/11/18 03:23:00;;;;;;;3.38;3.08;;;;;;;13.06;75.49;100508.47;4956582;29;20027;-76
2021/11/18 03:25:32;;;;;;;3.35;3.05;;;;;;;13.04;76.48;100510.78;4939949;29;20031;-76
2021/11/18 03:27:58;;;;;;;4.63;4.20;;;;;;;12.98;75.98;100505.91;4940372;29;20471;-76
2021/11/18 03:30:32;;;;;;;4.10;2.60;;;;;;;12.96;76.47;100511.06;4940435;29;20129;-77
2021/11/18 03:33:06;;;;;;;3.13;2.85;;;;;;;12.99;76.31;100524.25;4939702;29;20143;-76
2021/11/18 03:35:35;;;;;;;2.67;2.47;;;;;;;12.95;76.78;100518.63;4940016;29;20542;-76
2021/11/18 03:38:01;;;;;;;3.03;2.75;;;;;;;12.95;76.25;100524.22;4940046;29;20039;-76
2021/11/18 03:40:28;;;;;;;2.40;2.28;;;;;;;12.92;77.20;100524.13;4940938;29;20039;-76
2021/11/18 03:42:59;;;;;;;3.22;2.88;;;;;;;12.91;76.89;100523.34;4939980;29;20034;-76
2021/11/18 03:45:28;;;;;;;3.58;3.17;;;;;;;12.88;77.88;100518.47;4940033;29;20432;-76
2021/11/18 03:47:55;;;;;;;3.60;3.30;;;;;;;12.81;78.54;100526.72;4956254;29;20110;-76
2021/11/18 03:50:21;;;;;;;5.20;4.70;;;;;;;12.73;78.27;100523.00;4939988;29;20404;-76
2021/11/18 03:52:47;;;;;;;5.30;4.80;;;;;;;12.77;78.50;100529.44;4939791;29;20058;-76
2021/11/18 03:55:18;;;;;;;4.18;3.85;;;;;;;12.72;78.29;100514.97;4939621;29;20031;-76
2021/11/18 03:57:44;;;;;;;4.78;4.35;;;;;;;12.81;77.96;100543.50;4940346;29;20031;-75
2021/11/18 04:00:21;;;;;;;4.15;3.72;;;;;;;12.72;78.49;100531.72;4939312;29;20035;-76
2021/11/18 04:02:47;;;;;;;3.85;3.50;;;;;;;12.68;78.90;100542.03;4939643;29;20035;-76
2021/11/18 04:05:13;;;;;;;7.55;6.85;;;;;;;12.67;78.75;100540.41;4938911;29;20106;-76
2021/11/18 04:07:40;;;;;;;8.55;7.10;;;;;;;12.67;79.59;100538.41;4939114;29;20466;-76
2021/11/18 04:10:14;;;;;;;5.85;4.07;;;;;;;12.67;78.57;100541.22;4956213;29;20475;-76
2021/11/18 04:12:44;;;;;;;7.30;5.20;;;;;;;12.73;77.63;100533.34;4939596;29;20062;-76
2021/11/18 04:15:11;;;;;;;4.20;3.80;;;;;;;12.72;78.67;100542.91;4940119;29;20034;-76
2021/11/18 04:17:37;;;;;;;4.10;3.80;;;;;;;12.73;78.70;100538.94;4943033;29;20160;-76
2021/11/18 04:20:04;;;;;;;4.50;4.10;;;;;;;12.75;78.68;100531.00;4943164;29;20512;-76
2021/11/18 04:22:30;;;;;;;6.78;5.82;;;;;;;12.77;78.06;100539.81;4943085;29;20031;-76
2021/11/18 04:24:56;;;;;;;3.88;3.45;;;;;;;12.77;77.94;100537.81;4943678;29;20035;-76
2021/11/18 04:27:21;;;;;;;3.55;3.20;;;;;;;12.82;77.04;100542.31;4943356;29;20039;-76
2021/11/18 04:29:47;;;;;;;3.15;2.85;;;;;;;12.83;77.01;100539.13;4943624;29;20031;-76
2021/11/18 04:32:17;;;;;;;3.55;3.25;;;;;;;12.83;76.72;100555.09;4942663;29;20055;-76
2021/11/18 04:34:45;;;;;;;3.20;2.90;;;;;;;12.86;76.81;100559.94;4943163;29;20027;-76
2021/11/18 04:37:12;;;;;;;3.15;2.95;;;;;;;12.81;77.18;100552.66;4943331;29;20478;-76
2021/11/18 04:39:38;;;;;;;2.92;2.72;;;;;;;12.87;77.05;100555.97;4943110;29;20505;-76
2021/11/18 04:42:08;;;;;;;3.05;2.78;;;;;;;12.82;77.78;100559.06;4943053;29;20062;-76
2021/11/18 04:44:37;;;;;;;2.60;2.40;;;;;;;12.81;78.04;100565.81;4943370;29;20028;-76
2021/11/18 04:47:07;;;;;;;2.53;2.33;;;;;;;12.81;77.63;100558.25;4943683;29;20105;-76
2021/11/18 04:49:34;;;;;;;3.28;2.92;;;;;;;12.78;78.38;100558.16;4943858;29;20031;-76
2021/11/18 04:52:00;;;;;;;3.88;3.00;;;;;;;12.75;78.21;100558.94;4943168;29;20455;-76
2021/11/18 04:54:28;;;;;;;6.05;2.85;;;;;;;12.78;77.98;100560.97;4943494;29;20050;-76
2021/11/18 04:56:57;;;;;;;3.63;2.90;;;;;;;12.83;78.27;100567.06;4942537;29;20470;-76
2021/11/18 04:59:25;;;;;;;3.35;3.05;;;;;;;12.78;78.31;100569.34;4943088;29;20038;-76
2021/11/18 05:01:51;;;;;;;3.08;2.78;;;;;;;12.73;78.84;100566.84;4942417;29;20038;-76
2021/11/18 05:04:17;;;;;;;2.78;2.58;;;;;;;12.74;78.44;100574.06;4943042;29;20031;-76
2021/11/18 05:06:43;;;;;;;3.28;2.97;;;;;;;12.79;78.08;100582.97;4942971;29;20027;-76
2021/11/18 05:09:10;;;;;;;3.17;2.97;;;;;;;12.73;78.60;100578.00;4942625;29;20027;-76
2021/11/18 05:11:38;;;;;;;3.50;3.20;;;;;;;12.76;78.87;100582.88;4942046;29;20035;-76
2021/11/18 05:14:04;;;;;;;2.95;2.75;;;;;;;12.72;78.66;100581.97;4943063;29;20550;-76
2021/11/18 05:16:33;;;;;;;6.18;3.05;;;;;;;12.71;78.96;100580.38;4942265;29;20034;-76
2021/11/18 05:18:59;;;;;;;3.45;3.15;;;;;;;12.70;78.92;100578.75;4942408;29;20027;-76
2021/11/18 05:21:28;;;;;;;6.03;3.30;;;;;;;12.73;79.20;100591.97;4942448;29;20045;-76
2021/11/18 05:23:55;;;;;;;3.80;3.45;;;;;;;12.66;79.50;100578.69;4942403;29;20027;-77
2021/11/18 05:26:21;;;;;;;3.30;3.10;;;;;;;12.68;79.18;100581.13;4942013;29;20062;-76
2021/11/18 05:28:48;;;;;;;5.18;3.17;;;;;;;12.69;79.09;100591.13;4942326;29;20034;-76
2021/11/18 05:31:15;;;;;;;3.67;3.15;;;;;;;12.71;79.00;100602.72;4943219;29;20061;-76
2021/11/18 05:33:45;;;;;;;5.18;3.40;;;;;;;12.74;79.21;100596.41;4944582;29;20031;-76
2021/11/18 05:36:14;;;;;;;3.25;3.03;;;;;;;12.75;78.49;100604.41;4962312;29;20075;-76
2021/11/18 05:38:44;;;;;;;4.57;3.42;;;;;;;12.75;79.13;100604.41;4942387;29;20066;-76
2021/11/18 05:41:12;;;;;;;5.18;3.30;;;;;;;12.78;78.94;100603.69;4939164;29;20043;-76
2021/11/18 05:43:40;;;;;;;5.55;2.72;;;;;;;12.82;78.12;100603.72;4942210;29;20034;-76
2021/11/18 05:46:10;;;;;;;4.03;3.15;;;;;;;12.80;78.30;100611.69;4941980;29;20031;-76
2021/11/18 05:48:38;;;;;;;2.60;2.40;;;;;;;12.84;78.19;100612.56;4942106;29;20037;-76
2021/11/18 05:51:06;;;;;;;4.45;2.70;;;;;;;12.88;77.85;100613.44;4941187;29;20098;-77
2021/11/18 05:53:37;;;;;;;3.38;2.78;;;;;;;12.88;77.72;100610.63;4942825;29;20486;-76
2021/11/18 05:56:10;;;;;;;3.72;3.15;;;;;;;12.90;78.63;100615.88;4942136;29;20375;-76
2021/11/18 05:58:36;;;;;;;;;;;;;;;12.92;77.89;100611.53;4941623;29;20466;-76
2021/11/18 06:01:07;;;;;;;3.80;3.50;;;;;;;12.97;76.83;100616.81;4941296;29;19910;-76
2021/11/18 06:03:34;;;;;;;3.58;3.25;;;;;;;12.96;77.69;100614.41;4941400;29;20118;-76
2021/11/18 06:06:03;;;;;;;3.55;3.15;;;;;;;12.64;76.76;100555.91;4942003;29;20105;-76
2021/11/18 06:08:29;;;;;;;3.75;2.88;;;;;;;13.10;76.53;100623.88;4941978;29;20031;-76
2021/11/18 06:10:58;;;;;;;3.45;3.15;;;;;;;13.07;76.78;100623.78;4941933;29;20038;-76
2021/11/18 06:13:27;;;;;;;4.25;3.20;;;;;;;13.10;76.84;100620.25;4942484;29;20454;-76
2021/11/18 06:15:52;;;;;;;5.38;3.08;;;;;;;13.16;77.11;100618.78;4942785;29;20118;-76
2021/11/18 06:18:18;;;;;;;4.13;3.13;;;;;;;13.31;76.64;100622.69;4942795;29;20053;-76
2021/11/18 06:20:47;;;;;;;5.63;2.72;;;;;;;13.61;75.43;100623.63;4940892;29;20038;-76
2021/11/18 06:23:14;;;;;;;3.28;3.03;;;;;;;13.82;73.96;100639.16;4941935;29;20027;-76
2021/11/18 06:25:41;;;;;;;4.20;3.80;;;;;;;14.10;72.85;100642.41;4941566;29;20031;-76
2021/11/18 06:28:13;;;;;;;4.90;2.65;;;;;;;14.30;71.91;100642.31;4942185;29;20516;-76
2021/11/18 06:30:44;;;;;;;7.60;2.75;;;;;;;14.67;70.85;100646.09;4957417;29;20123;-76
2021/11/18 06:33:11;;;;;;;3.67;2.92;;;;;;;15.07;69.39;100646.59;4940430;29;20051;-76
2021/11/18 06:35:37;;;;;;;4.60;3.45;;;;;;;15.49;68.83;100643.44;4956887;29;20114;-75
2021/11/18 06:38:04;;;;;;;5.38;3.65;;;;;;;15.67;67.68;100649.28;4938647;29;20498;-76
2021/11/18 06:40:33;;;;;;;6.85;3.53;;;;;;;16.09;65.60;100648.84;4939578;29;20176;-76
2021/11/18 06:43:01;;;;;;;5.03;3.60;;;;;;;16.54;64.03;100655.16;4939201;29;20134;-75
2021/11/18 06:45:32;;;;;;;4.55;3.58;;;;;;;16.97;62.55;100661.03;4939281;29;20024;-77
2021/11/18 06:48:01;;;;;;;4.60;3.15;;;;;;;17.38;61.13;100657.97;4939808;29;20031;-78
2021/11/18 06:50:26;;;;;;;4.72;3.05;;;;;;;17.74;60.63;100662.50;4939221;29;20055;-77
2021/11/18 06:52:52;;;;;;;3.28;2.97;;;;;;;18.10;59.33;100665.31;4939196;29;20062;-77
2021/11/18 06:55:21;;;;;;;6.10;3.70;;;;;;;18.43;57.33;100669.72;4939119;29;20027;-81
2021/11/18 06:57:49;;;;;;;3.78;3.30;;;;;;;18.75;57.02;100672.50;4939523;29;20035;-77
2021/11/18 07:00:16;;;;;;;3.30;3.00;;;;;;;19.16;55.81;100668.31;4939036;29;20495;-76
2021/11/18 07:02:46;;;;;;;3.50;3.20;;;;;;;19.51;54.46;100676.59;4939761;29;20035;-76
2021/11/18 07:05:12;;;;;;;8.52;3.30;;;;;;;19.70;53.52;100675.28;4938738;29;20027;-76
2021/11/18 07:07:37;;;;;;;8.25;3.45;;;;;;;19.95;53.46;100685.63;4939015;29;20129;-77
2021/11/18 07:10:07;;;;;;;7.43;2.88;;;;;;;20.05;50.99;100676.25;4938964;29;20126;-76
2021/11/18 07:12:35;;;;;;;2.78;2.58;;;;;;;20.25;52.21;100688.59;4938877;29;20035;-76
2021/11/18 07:15:03;;;;;;;3.30;2.45;;;;;;;20.59;50.84;100694.38;4939189;29;20035;-76
2021/11/18 07:17:29;;;;;;;2.50;2.22;;;;;;;20.72;50.58;100697.47;4938856;29;20031;-76
2021/11/18 07:19:58;;;;;;;2.83;2.25;;;;;;;20.98;49.87;100706.47;4938791;29;20110;-76
2021/11/18 07:22:28;;;;;;;2.65;2.20;;;;;;;20.97;48.35;100704.88;4938785;29;20537;-76
2021/11/18 07:24:58;;;;;;;2.55;2.13;;;;;;;20.96;49.03;100708.94;4938069;29;20027;-76
2021/11/18 07:27:24;;;;;;;2.33;2.13;;;;;;;20.89;49.30;100707.78;4938644;29;20039;-77
2021/11/18 07:29:53;;;;;;;2.40;2.20;;;;;;;20.64;48.12;100704.41;4938593;29;20038;-79
2021/11/18 07:32:20;;;;;;;2.67;2.45;;;;;;;20.90;48.24;100706.56;4938208;29;20079;-77
2021/11/18 07:34:46;;;;;;;2.88;2.55;;;;;;;21.03;48.66;100711.66;4938049;29;20024;-77
2021/11/18 07:37:11;;;;;;;3.40;2.70;;;;;;;21.16;48.07;100715.56;4938171;29;20051;-77
2021/11/18 07:39:37;;;;;;;3.08;2.10;;;;;;;21.30;46.72;100712.56;4938236;29;20035;-76
2021/11/18 07:42:03;;;;;;;2.25;2.08;;;;;;;21.62;45.66;100719.84;4938548;29;20059;-80
2021/11/18 07:44:31;;;;;;;2.80;2.60;;;;;;;21.06;46.55;100713.66;4938678;29;20070;-77
2021/11/18 07:46:57;;;;;;;3.38;2.60;;;;;;;20.57;47.66;100712.97;4938511;29;20356;-76
2021/11/18 07:49:24;;;;;;;2.75;2.15;;;;;;;21.41;46.85;100713.25;4938064;29;20078;-77
2021/11/18 07:51:53;;;;;;;2.45;2.25;;;;;;;21.67;47.11;100708.03;4955740;29;20053;-76
2021/11/18 07:54:24;;;;;;;2.58;2.38;;;;;;;21.72;44.24;100710.41;4938505;29;20031;-76
2021/11/18 07:56:51;;;;;;;14.95;3.17;;;;;;;20.71;47.42;100707.16;4938334;29;20038;-76
2021/11/18 07:59:19;;;;;;;3.45;2.50;;;;;;;20.50;47.96;100719.47;4938243;29;20122;-76
2021/11/18 08:01:45;;;;;;;2.90;2.60;;;;;;;20.69;47.78;100715.28;4938247;29;20047;-77
2021/11/18 08:04:13;;;;;;;2.65;2.17;;;;;;;21.08;47.18;100716.88;4938128;29;20035;-76
2021/11/18 08:06:39;;;;;;;3.20;2.70;;;;;;;21.36;47.65;100722.22;4938240;29;20129;-76
2021/11/18 08:09:06;;;;;;;2.55;2.35;;;;;;;22.00;46.35;100722.53;4938535;29;20085;-77
2021/11/18 08:11:38;;;;;;;3.40;2.42;;;;;;;22.41;45.58;100728.75;4938350;29;20038;-77
2021/11/18 08:14:06;;;;;;;2.70;2.50;;;;;;;22.74;44.53;100726.16;4938295;29;20034;-77
2021/11/18 08:16:32;;;;;;;6.07;2.53;;;;;;;22.68;43.07;100719.38;4938180;29;20039;-76
2021/11/18 08:18:57;;;;;;;3.15;2.47;;;;;;;22.27;43.79;100726.19;4938325;29;20061;-76
2021/11/18 08:21:24;;;;;;;2.70;2.45;;;;;;;21.95;45.21;100712.50;4938564;29;20034;-77
2021/11/18 08:23:50;;;;;;;3.15;2.30;;;;;;;21.94;44.88;100730.69;4938096;29;20035;-76
2021/11/18 08:26:18;;;;;;;5.07;2.90;;;;;;;22.05;44.39;100733.38;4938119;29;20386;-77
2021/11/18 08:28:44;;;;;;;2.85;2.03;;;;;;;21.84;44.11;100731.66;4938094;29;20034;-78
2021/11/18 08:31:15;;;;;;;3.05;2.47;;;;;;;22.14;44.22;100716.66;4937445;29;20135;-76
2021/11/18 08:33:41;;;;;;;2.75;2.00;;;;;;;22.45;43.78;100740.84;4938167;29;20035;-76
2021/11/18 08:36:07;;;;;;;2.65;2.42;;;;;;;22.28;43.60;100750.47;4937651;29;20031;-76
2021/11/18 08:38:36;;;;;;;4.43;2.30;;;;;;;21.80;45.58;100756.44;4937993;29;20350;-76
2021/11/18 08:41:05;;;;;;;3.03;2.50;;;;;;;21.48;45.69;100757.66;4937725;29;20114;-76
2021/11/18 08:43:34;;;;;;;5.28;2.35;;;;;;;21.55;45.70;100759.59;4937705;29;20122;-76
2021/11/18 08:46:02;;;;;;;3.03;2.70;;;;;;;21.78;45.59;100762.50;4938015;29;20032;-78
2021/11/18 08:48:31;;;;;;;3.13;2.92;;;;;;;22.05;45.15;100756.88;4938582;29;20125;-76
2021/11/18 08:51:06;;;;;;;2.72;2.25;;;;;;;21.88;45.43;100758.72;4954975;29;20495;-77
2021/11/18 08:53:35;;;;;;;2.95;2.45;;;;;;;22.16;44.12;100756.72;4938084;29;20467;-77
2021/11/18 08:56:01;;;;;;;2.40;2.17;;;;;;;21.40;45.90;100761.78;4938220;29;20475;-76
2021/11/18 08:58:31;;;;;;;3.78;3.05;;;;;;;22.00;44.82;100760.19;4937428;29;20121;-81
2021/11/18 09:01:05;;;;;;;4.85;4.05;;;;;;;21.60;45.91;100764.78;4938034;29;20474;-76
2021/11/18 09:03:33;;;;;;;4.53;4.10;;;;;;;21.00;47.73;100771.94;4941507;29;20529;-77
2021/11/18 09:06:04;;;;;;;4.82;4.35;;;;;;;21.09;47.00;100775.03;4941359;29;20031;-77
2021/11/18 09:08:32;;;;;;;6.95;4.47;;;;;;;21.18;47.05;100775.38;4940877;29;20023;-76
2021/11/18 09:10:58;;;;;;;5.28;3.80;;;;;;;21.03;46.63;100782.38;4940851;29;20067;-76
2021/11/18 09:13:24;;;;;;;5.07;4.55;;;;;;;21.49;45.98;100781.09;4940907;29;20031;-76
2021/11/18 09:15:51;;;;;;;7.07;5.15;;;;;;;21.28;46.76;100774.44;4940929;29;20066;-77
2021/11/18 09:18:17;;;;;;;4.57;3.95;;;;;;;20.81;47.29;100779.78;4940783;29;20027;-77
2021/11/18 09:20:48;;;;;;;7.70;4.80;;;;;;;20.89;47.19;100772.03;4940469;29;20126;-78
2021/11/18 09:23:16;;;;;;;6.05;4.60;;;;;;;21.23;46.99;100788.25;4958874;29;20059;-76
2021/11/18 09:25:48;;;;;;;6.10;4.80;;;;;;;21.79;44.82;100788.81;4940582;29;20031;-77
2021/11/18 09:28:17;;;;;;;3.65;3.33;;;;;;;22.04;45.00;100799.78;4925306;29;20031;-77
2021/11/18 09:30:48;;;;;;;4.50;3.17;;;;;;;22.14;44.53;100798.84;4958300;29;20498;-79
2021/11/18 09:33:16;;;;;;;5.28;4.70;;;;;;;21.50;45.06;100802.53;4940274;29;20075;-76
2021/11/18 09:35:46;;;;;;;5.22;4.70;;;;;;;21.33;45.71;100799.47;4940650;29;20058;-75
2021/11/18 09:38:13;;;;;;;6.50;4.78;;;;;;;21.55;45.77;100804.88;4940975;29;20035;-76
2021/11/18 09:40:47;;;;;;;5.68;4.00;;;;;;;21.99;44.72;100803.88;4957498;29;20058;-76
2021/11/18 09:43:34;;;;;;;4.78;4.32;;;;;;;22.26;43.68;100806.75;4940302;29;20031;-76
2021/11/18 09:46:34;;;;;;;4.60;4.10;;;;;;;21.64;44.78;100802.34;4939894;29;20086;-76
2021/11/18 09:49:18;;;;;;;4.72;3.35;;;;;;;21.88;44.41;100797.56;4940248;29;20036;-77
2021/11/18 09:52:05;;;;;;;4.95;3.80;;;;;;;22.26;42.99;100788.94;4940874;29;20058;-76
2021/11/18 09:54:43;;;;;;;3.28;2.97;;;;;;;23.15;41.98;100784.59;4957363;29;20027;-77
2021/11/18 09:57:45;;;;;;;3.13;2.70;;;;;;;23.87;40.35;100790.47;4939916;29;20034;-78
2021/11/18 10:00:18;;;;;;;4.97;3.25;;;;;;;23.48;40.16;100792.03;4932717;29;20023;-78
2021/11/18 10:02:56;;;;;;;4.30;3.08;;;;;;;23.23;40.68;100791.75;4940486;29;20070;-76
2021/11/18 10:05:44;;;;;;;2.70;2.22;;;;;;;23.75;38.94;100794.75;4934388;29;20031;-76
2021/11/18 10:08:20;;;;;;;2.33;2.13;;;;;;;24.22;38.50;100796.56;4939609;29;20039;-77
2021/11/18 10:11:31;;;;;;;2.85;2.38;;;;;;;24.44;38.38;100797.66;4956587;29;20031;-77
2021/11/18 10:14:46;;;;;;;3.60;2.60;;;;;;;24.32;37.51;100789.81;4939359;29;20035;-78
2021/11/18 10:17:32;;;;;;;2.90;2.10;;;;;;;24.38;37.75;100793.75;4907581;29;20466;-76
2021/11/18 10:20:10;;;;;;;1.95;1.80;;;;;;;24.45;36.18;100787.09;4939929;29;20110;-78
2021/11/18 10:22:41;;;;;;;2.33;1.67;;;;;;;24.06;36.14;100791.63;4939703;29;20038;-76
2021/11/18 10:25:12;;;;;;;2.40;1.90;;;;;;;23.81;36.51;100795.06;4939459;29;20035;-77
2021/11/18 10:27:48;;;;;;;3.88;1.88;;;;;;;24.25;36.18;100775.78;4940128;29;20369;-76
2021/11/18 10:30:37;;;;;;;2.97;1.83;;;;;;;24.54;36.18;100782.38;4939737;29;20032;-77
2021/11/18 10:33:17;;;;;;;4.05;2.10;;;;;;;23.64;36.65;100776.34;4939125;29;20151;-76
2021/11/18 10:35:42;;;;;;;2.78;2.00;;;;;;;22.73;38.56;100770.75;4939568;29;20500;-76
2021/11/18 10:38:22;;;;;;;3.22;1.80;;;;;;;23.08;37.92;100767.72;4939598;29;20031;-77
2021/11/18 10:41:12;;;;;;;4.03;2.10;;;;;;;22.88;38.00;100768.47;4939502;29;20470;-79
2021/11/18 10:43:40;;;;;;;2.25;2.05;;;;;;;22.33;39.63;100764.16;4939489;29;20035;-77
2021/11/18 10:46:20;;;;;;;2.20;2.00;;;;;;;22.60;39.28;100754.78;4939220;29;20039;-79
2021/11/18 10:48:56;;;;;;;2.60;2.13;;;;;;;22.95;39.81;100756.19;4939270;29;20504;-77
2021/11/18 10:51:54;;;;;;;2.55;2.08;;;;;;;23.40;38.33;100750.06;4939788;29;20110;-77
2021/11/18 10:54:37;;;;;;;2.40;2.20;;;;;;;22.60;40.08;100746.28;4931810;29;20137;-77
2021/11/18 10:57:04;;;;;;;5.70;2.60;;;;;;;23.18;38.66;100753.31;4939633;29;20035;-78
2021/11/18 10:59:38;;;;;;;2.58;2.38;;;;;;;23.02;39.07;100746.75;4939145;29;20266;-77
2021/11/18 11:02:16;;;;;;;4.80;2.17;;;;;;;23.64;38.22;100745.09;4955994;29;20034;-76
2021/11/18 11:04:46;;;;;;;2.08;1.98;;;;;;;23.98;37.56;100747.59;4938989;29;20513;-77
2021/11/18 11:07:12;;;;;;;2.55;2.17;;;;;;;23.48;37.84;100745.81;4938839;29;20031;-76
2021/11/18 11:09:47;;;;;;;2.38;2.00;;;;;;;23.22;38.46;100744.72;4939307;29;20043;-78
2021/11/18 11:12:23;;;;;;;2.67;2.22;;;;;;;22.92;39.17;100740.84;4931912;29;20371;-77
2021/11/18 11:14:55;;;;;;;2.70;2.30;;;;;;;22.75;38.75;100719.28;4938540;29;20032;-78
2021/11/18 11:17:42;;;;;;;3.25;1.88;;;;;;;22.64;38.70;100738.53;4938453;29;20090;-77
2021/11/18 11:20:14;;;;;;;2.70;2.00;;;;;;;22.51;38.88;100740.34;4938833;29;20058;-77
2021/11/18 11:22:52;;;;;;;2.72;1.55;;;;;;;22.55;38.78;100735.44;4938236;29;20027;-79
2021/11/18 11:25:50;;;;;;;2.55;2.13;;;;;;;22.20;38.92;100727.09;4938460;29;20051;-78
2021/11/18 11:28:33;;;;;;;1.58;1.40;;;;;;;22.37;38.52;100730.06;4931403;29;20050;-78
2021/11/18 11:31:18;;;;;;;6.82;1.48;;;;;;;22.32;38.39;100736.22;4938345;28;20166;-78
2021/11/18 11:34:13;;;;;;;3.47;1.67;;;;;;;22.10;39.26;100732.88;4939125;29;20027;-76
2021/11/18 11:36:50;;;;;;;3.30;1.50;;;;;;;21.75;40.25;100737.88;4938713;29;20138;-77
2021/11/18 11:39:28;;;;;;;2.50;1.38;;;;;;;21.61;40.59;100738.06;4929647;29;20110;-78
2021/11/18 11:42:31;;;;;;;1.55;1.45;;;;;;;21.39;41.90;100741.19;4938423;29;20094;-78